Time;durP1;ratioP1;P1;durP2;ratioP2;P2;SDS_P1;SDS_P2;PMS_P1;PMS_P2;Temp;Humidity;BMP_temperature;BMP_pressure;BME280_temperature;BME280_humidity;BME280_pressure;Samples;Min_cycle;Max_cycle;Signal;HPM_P1;HPM_P2
2023/08/09 00:00:41;;;;;;;9.88;6.78;;;13.40;99.90;;;;;;4802598;29;20521;-52
2023/08/09 00:03:07;;;;;;;9.70;6.65;;;13.50;99.90;;;;;;4802707;29;20095;-51
2023/08/09 00:05:33;;;;;;;9.50;6.63;;;13.40;99.90;;;;;;4804044;29;20045;-52
2023/08/09 00:07:59;;;;;;;13.27;7.40;;;13.40;99.90;;;;;;4804096;29;20066;-51
2023/08/09 00:10:25;;;;;;;10.93;7.43;;;13.30;99.90;;;;;;4803288;29;20484;-48
2023/08/09 00:12:51;;;;;;;9.32;5.07;;;13.40;99.90;;;;;;4803980;29;20452;-51
2023/08/09 00:15:18;;;;;;;9.55;6.82;;;13.30;99.90;;;;;;4802527;29;20153;-50
2023/08/09 00:17:44;;;;;;;10.52;6.82;;;13.20;99.90;;;;;;4803836;29;20051;-49
2023/08/09 00:20:11;;;;;;;11.05;7.55;;;13.20;99.90;;;;;;4802216;29;20047;-51
2023/08/09 00:22:38;;;;;;;13.20;8.63;;;13.30;99.90;;;;;;4805214;29;20482;-48
2023/08/09 00:25:05;;;;;;;12.15;8.25;;;13.30;99.90;;;;;;4807122;29;20118;-52
2023/08/09 00:27:31;;;;;;;9.93;5.80;;;13.20;99.90;;;;;;4807596;29;20082;-52
2023/08/09 00:29:57;;;;;;;9.95;7.38;;;13.10;99.90;;;;;;4802713;29;20474;-51
2023/08/09 00:32:22;;;;;;;11.82;8.43;;;13.10;99.90;;;;;;4804541;29;20045;-52
2023/08/09 00:34:48;;;;;;;10.55;8.57;;;13.10;99.90;;;;;;4805486;29;20483;-52
2023/08/09 00:37:14;;;;;;;10.00;8.50;;;13.10;99.90;;;;;;4805045;29;20047;-50
2023/08/09 00:39:39;;;;;;;10.43;6.15;;;13.10;99.90;;;;;;4804944;29;20054;-52
2023/08/09 00:42:05;;;;;;;12.82;8.38;;;13.00;99.90;;;;;;4805894;29;20109;-52
2023/08/09 00:44:31;;;;;;;12.35;6.82;;;13.00;99.90;;;;;;4789664;29;20059;-51
2023/08/09 00:46:57;;;;;;;9.85;8.15;;;13.00;99.90;;;;;;4805812;29;20517;-50
2023/08/09 00:49:23;;;;;;;11.45;8.63;;;13.00;99.90;;;;;;4805121;29;20043;-53
2023/08/09 00:51:49;;;;;;;10.32;7.93;;;12.90;99.90;;;;;;4805075;29;20038;-51
2023/08/09 00:54:16;;;;;;;10.98;9.23;;;12.90;99.90;;;;;;4805449;29;20501;-53
2023/08/09 00:56:43;;;;;;;13.82;9.57;;;12.90;99.90;;;;;;4806376;29;20054;-50
2023/08/09 00:59:09;;;;;;;10.52;9.40;;;12.90;99.90;;;;;;4807045;29;20051;-52
2023/08/09 01:01:34;;;;;;;12.63;8.90;;;12.90;99.90;;;;;;4806674;29;20132;-50
2023/08/09 01:04:01;;;;;;;11.82;6.05;;;12.90;99.90;;;;;;4807090;29;20038;-50
2023/08/09 01:06:41;;;;;;;10.38;8.43;;;12.90;99.90;;;;;;4806788;29;20047;-51
2023/08/09 01:09:08;;;;;;;9.15;7.30;;;12.90;99.90;;;;;;4806292;29;20071;-53
2023/08/09 01:11:46;;;;;;;11.27;8.80;;;12.80;99.90;;;;;;4806734;29;20046;-51
2023/08/09 01:14:14;;;;;;;10.07;8.32;;;12.80;99.90;;;;;;4806946;29;20513;-50
2023/08/09 01:16:40;;;;;;;11.43;8.13;;;12.80;99.90;;;;;;4806902;29;20139;-50
2023/08/09 01:19:10;;;;;;;10.27;8.18;;;12.70;99.90;;;;;;4806736;29;20572;-52
2023/08/09 01:21:43;;;;;;;10.80;8.45;;;12.70;99.90;;;;;;4806816;29;20404;-52
2023/08/09 01:24:09;;;;;;;9.77;8.05;;;12.60;99.90;;;;;;4805462;29;20039;-52
2023/08/09 01:26:39;;;;;;;11.82;9.25;;;12.60;99.90;;;;;;4806322;29;20127;-49
2023/08/09 01:29:04;;;;;;;10.23;8.73;;;12.60;99.90;;;;;;4805476;29;20085;-53
2023/08/09 01:31:30;;;;;;;10.77;6.15;;;12.60;99.90;;;;;;4804389;29;20078;-50
2023/08/09 01:33:56;;;;;;;12.00;9.68;;;12.60;99.90;;;;;;4805329;29;20106;-52
2023/08/09 01:36:28;;;;;;;10.98;5.97;;;12.50;99.90;;;;;;4804672;29;20054;-51
2023/08/09 01:39:06;;;;;;;10.65;9.20;;;12.60;99.90;;;;;;4806231;29;20551;-50
2023/08/09 01:41:33;;;;;;;31.42;9.52;;;12.50;99.90;;;;;;4806096;29;20062;-51
2023/08/09 01:43:59;;;;;;;18.48;6.50;;;12.50;99.90;;;;;;4806177;29;20472;-50
2023/08/09 01:46:26;;;;;;;12.63;9.90;;;12.50;99.90;;;;;;4806055;29;20039;-51
2023/08/09 01:49:06;;;;;;;24.55;9.98;;;12.50;99.90;;;;;;4806272;29;20049;-50
2023/08/09 01:51:32;;;;;;;35.03;9.80;;;12.60;99.90;;;;;;4806247;29;20528;-48
2023/08/09 01:53:58;;;;;;;39.33;10.02;;;12.40;99.90;;;;;;4804736;29;20129;-51
2023/08/09 01:56:24;;;;;;;50.97;9.45;;;12.40;99.90;;;;;;4805778;29;20205;-52
2023/08/09 01:58:53;;;;;;;59.55;7.97;;;12.40;99.90;;;;;;4806173;29;20053;-52
2023/08/09 02:01:18;;;;;;;37.85;6.93;;;12.30;99.90;;;;;;4805943;29;20059;-49
2023/08/09 02:03:44;;;;;;;60.08;10.25;;;12.30;99.90;;;;;;4806037;29;20043;-51
2023/08/09 02:06:10;;;;;;;37.88;11.98;;;12.40;99.90;;;;;;4805568;29;20115;-52
2023/08/09 02:08:35;;;;;;;30.48;7.68;;;12.30;99.90;;;;;;4805353;29;20141;-52
2023/08/09 02:11:01;;;;;;;66.40;12.30;;;12.30;99.90;;;;;;4805263;29;20046;-51
2023/08/09 02:13:27;;;;;;;20.88;8.60;;;12.30;99.90;;;;;;4805787;29;20042;-51
2023/08/09 02:15:53;;;;;;;59.60;13.38;;;12.30;99.90;;;;;;4805655;29;20112;-51
2023/08/09 02:18:18;;;;;;;22.90;8.75;;;12.20;99.90;;;;;;4805338;29;20045;-50
2023/08/09 02:20:44;;;;;;;13.35;8.57;;;12.20;99.90;;;;;;4805806;29;20046;-50
2023/08/09 02:23:10;;;;;;;18.77;8.80;;;12.20;99.90;;;;;;4805539;29;21269;-54
2023/08/09 02:25:36;;;;;;;18.58;11.80;;;12.20;99.90;;;;;;4805605;29;20042;-51
2023/08/09 02:28:01;;;;;;;26.60;13.02;;;12.30;99.90;;;;;;4805265;29;20499;-51
2023/08/09 02:30:28;;;;;;;23.65;11.63;;;12.20;99.90;;;;;;4805219;29;20064;-51
2023/08/09 02:32:53;;;;;;;47.00;12.93;;;12.30;99.90;;;;;;4805159;29;20101;-49
2023/08/09 02:35:19;;;;;;;32.65;12.90;;;12.40;99.90;;;;;;4805807;29;20074;-53
2023/08/09 02:37:45;;;;;;;26.00;12.20;;;12.30;99.90;;;;;;4804984;29;20336;-49
2023/08/09 02:40:11;;;;;;;28.60;12.60;;;12.40;99.90;;;;;;4805056;29;20137;-53
2023/08/09 02:42:37;;;;;;;40.35;13.13;;;12.40;99.90;;;;;;4805001;29;20039;-50
2023/08/09 02:45:05;;;;;;;34.72;13.18;;;12.40;99.90;;;;;;4803220;29;20047;-50
2023/08/09 02:47:31;;;;;;;25.52;13.00;;;12.40;99.90;;;;;;4804986;29;20047;-51
2023/08/09 02:49:56;;;;;;;39.97;14.07;;;12.40;99.90;;;;;;4802964;29;20705;-52
2023/08/09 02:52:22;;;;;;;16.85;8.40;;;12.30;99.90;;;;;;4804474;29;20042;-50
2023/08/09 02:54:48;;;;;;;34.55;13.98;;;12.30;99.90;;;;;;4804628;29;20030;-52
2023/08/09 02:57:14;;;;;;;31.02;13.35;;;12.20;99.90;;;;;;4804018;29;20126;-52
2023/08/09 02:59:40;;;;;;;32.13;9.60;;;12.20;99.90;;;;;;4804897;29;20403;-51
2023/08/09 03:02:06;;;;;;;60.22;14.13;;;12.10;99.90;;;;;;4803605;29;20047;-52
2023/08/09 03:04:33;;;;;;;25.80;9.15;;;12.20;99.90;;;;;;4804879;29;20047;-49
2023/08/09 03:06:58;;;;;;;31.00;9.75;;;12.20;99.90;;;;;;4804926;29;20503;-54
2023/08/09 03:09:24;;;;;;;36.05;12.95;;;12.20;99.90;;;;;;4804062;29;20051;-51
2023/08/09 03:11:50;;;;;;;42.05;14.55;;;12.20;99.90;;;;;;4804755;29;20051;-50
2023/08/09 03:14:16;;;;;;;39.95;13.65;;;12.20;99.90;;;;;;4804516;29;20408;-52
2023/08/09 03:16:42;;;;;;;71.57;9.63;;;12.20;99.90;;;;;;4803291;29;20065;-52
2023/08/09 03:19:08;;;;;;;24.80;8.52;;;12.20;99.90;;;;;;4804693;29;20046;-52
2023/08/09 03:21:34;;;;;;;40.15;14.25;;;12.20;99.90;;;;;;4804554;29;20059;-49
2023/08/09 03:24:01;;;;;;;18.33;9.65;;;12.20;99.90;;;;;;4804195;29;20047;-50
2023/08/09 03:26:26;;;;;;;39.42;13.70;;;12.20;99.90;;;;;;4803490;29;20438;-50
2023/08/09 03:28:53;;;;;;;30.92;14.57;;;12.20;99.90;;;;;;4804322;29;20047;-53
2023/08/09 03:31:19;;;;;;;35.72;15.63;;;12.30;99.90;;;;;;4804227;29;20109;-49
2023/08/09 03:33:44;;;;;;;38.70;15.30;;;12.10;99.90;;;;;;4804418;29;20442;-50
2023/08/09 03:36:12;;;;;;;50.40;14.98;;;12.10;99.90;;;;;;4804534;29;20064;-52
2023/08/09 03:38:38;;;;;;;66.85;10.45;;;12.20;99.90;;;;;;4804006;29;20444;-53
2023/08/09 03:41:03;;;;;;;29.52;13.60;;;12.20;99.90;;;;;;4802954;29;20046;-51
2023/08/09 03:43:29;;;;;;;48.50;16.02;;;12.20;99.90;;;;;;4803706;29;20088;-50
2023/08/09 03:45:55;;;;;;;48.15;15.10;;;12.10;99.90;;;;;;4804219;29;20184;-52
2023/08/09 03:48:21;;;;;;;85.53;10.88;;;12.20;99.90;;;;;;4804500;29;20042;-49
2023/08/09 03:50:47;;;;;;;48.20;16.25;;;12.10;99.90;;;;;;4804093;29;20447;-53
2023/08/09 03:53:12;;;;;;;59.83;14.90;;;12.00;99.90;;;;;;4804167;29;20103;-53
2023/08/09 03:55:38;;;;;;;122.88;20.08;;;12.10;99.90;;;;;;4803927;29;20050;-52
2023/08/09 03:58:04;;;;;;;34.13;10.43;;;12.10;99.90;;;;;;4801770;29;20484;-52
2023/08/09 04:00:29;;;;;;;63.78;10.40;;;12.00;99.90;;;;;;4804046;29;20059;-48
2023/08/09 04:02:56;;;;;;;72.28;17.25;;;12.10;99.90;;;;;;4803932;29;20392;-49
2023/08/09 04:05:23;;;;;;;85.70;17.30;;;12.00;99.90;;;;;;4804127;29;20392;-52
2023/08/09 04:07:49;;;;;;;153.82;21.08;;;12.10;99.90;;;;;;4802516;29;20042;-51
2023/08/09 04:10:16;;;;;;;97.68;17.17;;;12.10;99.90;;;;;;4802881;29;20066;-48
2023/08/09 04:12:42;;;;;;;76.25;14.73;;;12.20;99.90;;;;;;4803867;29;20526;-52
2023/08/09 04:15:08;;;;;;;100.40;15.82;;;12.20;99.90;;;;;;4803951;29;20078;-51
2023/08/09 04:17:34;;;;;;;31.95;15.45;;;12.10;99.90;;;;;;4804071;29;20131;-49
2023/08/09 04:20:00;;;;;;;34.20;10.60;;;12.10;99.90;;;;;;4802451;29;20505;-50
2023/08/09 04:22:26;;;;;;;110.00;22.65;;;12.10;99.90;;;;;;4803923;29;20099;-52
2023/08/09 04:24:52;;;;;;;43.20;10.65;;;12.10;99.90;;;;;;4803670;29;20410;-51
2023/08/09 04:27:18;;;;;;;35.80;11.13;;;12.00;99.90;;;;;;4803814;29;20043;-51
2023/08/09 04:29:43;;;;;;;43.80;18.60;;;12.00;99.90;;;;;;4803939;29;20164;-51
2023/08/09 04:32:09;;;;;;;26.98;14.90;;;12.10;99.90;;;;;;4802164;29;20042;-52
2023/08/09 04:34:35;;;;;;;46.92;12.07;;;12.10;99.90;;;;;;4803761;29;20054;-50
2023/08/09 04:37:00;;;;;;;36.95;17.52;;;12.10;99.90;;;;;;4803588;29;20721;-49
2023/08/09 04:39:26;;;;;;;23.55;15.90;;;12.10;99.90;;;;;;4803067;29;20047;-52
2023/08/09 04:41:53;;;;;;;49.00;17.48;;;12.20;99.90;;;;;;4803523;29;20147;-51
2023/08/09 04:44:20;;;;;;;46.97;18.50;;;12.10;99.90;;;;;;4803294;29;20066;-50
2023/08/09 04:46:46;;;;;;;31.83;11.10;;;12.20;99.90;;;;;;4803933;29;20100;-52
2023/08/09 04:49:12;;;;;;;29.83;10.82;;;12.20;99.90;;;;;;4803634;29;20419;-51
2023/08/09 04:51:38;;;;;;;50.47;17.50;;;12.10;99.90;;;;;;4817401;29;20503;-52
2023/08/09 04:54:05;;;;;;;70.28;19.45;;;12.30;99.90;;;;;;4803290;29;20037;-51
2023/08/09 04:56:31;;;;;;;33.50;16.63;;;12.30;99.90;;;;;;4803758;29;20078;-51
2023/08/09 04:58:57;;;;;;;47.47;11.55;;;12.40;99.90;;;;;;4803365;29;20047;-52
2023/08/09 05:01:23;;;;;;;34.78;12.15;;;12.20;99.90;;;;;;4803706;29;20046;-51
2023/08/09 05:03:48;;;;;;;91.20;13.30;;;12.30;99.90;;;;;;4802244;29;20396;-49
2023/08/09 05:06:14;;;;;;;86.80;19.85;;;12.30;99.90;;;;;;4803217;29;20499;-50
2023/08/09 05:08:40;;;;;;;119.72;14.57;;;12.50;99.90;;;;;;4804166;29;20093;-52
2023/08/09 05:11:06;;;;;;;40.25;11.45;;;12.50;99.90;;;;;;4805187;29;20107;-50
2023/08/09 05:13:31;;;;;;;82.32;13.95;;;12.40;99.90;;;;;;4807134;29;20418;-52
2023/08/09 05:15:57;;;;;;;51.60;15.75;;;12.50;99.90;;;;;;4806531;29;20115;-53
2023/08/09 05:18:22;;;;;;;71.93;19.77;;;12.60;99.90;;;;;;4807011;29;20130;-52
2023/08/09 05:20:48;;;;;;;70.38;20.63;;;12.50;99.90;;;;;;4806729;29;20047;-51
2023/08/09 05:23:14;;;;;;;109.18;22.45;;;12.60;99.90;;;;;;4804999;29;20515;-48
2023/08/09 05:25:39;;;;;;;130.20;25.23;;;12.60;99.90;;;;;;4806524;29;20096;-53
2023/08/09 05:28:05;;;;;;;81.22;20.67;;;12.80;99.90;;;;;;4805070;29;20034;-51
2023/08/09 05:30:31;;;;;;;93.88;14.75;;;12.60;99.90;;;;;;4820106;29;20043;-49
2023/08/09 05:32:58;;;;;;;67.35;14.48;;;12.70;99.90;;;;;;4806504;29;20047;-49
2023/08/09 05:35:26;;;;;;;58.65;14.40;;;12.90;99.90;;;;;;4806330;29;20050;-50
2023/08/09 05:37:52;;;;;;;51.97;13.60;;;12.90;99.90;;;;;;4804718;29;20133;-50
2023/08/09 05:40:18;;;;;;;67.88;14.40;;;13.00;99.90;;;;;;4805406;29;20130;-50
2023/08/09 05:42:44;;;;;;;35.88;13.48;;;13.00;99.90;;;;;;4806220;29;20038;-51
2023/08/09 05:45:10;;;;;;;54.45;15.27;;;13.00;99.90;;;;;;4804691;29;20431;-50
2023/08/09 05:47:35;;;;;;;51.65;21.55;;;13.20;99.90;;;;;;4806423;29;20058;-50
2023/08/09 05:50:01;;;;;;;56.28;14.02;;;13.20;99.90;;;;;;4806062;29;20620;-51
2023/08/09 05:52:28;;;;;;;46.85;22.58;;;13.30;99.90;;;;;;4806273;29;20047;-52
2023/08/09 05:54:53;;;;;;;47.92;15.00;;;13.40;99.90;;;;;;4804791;29;20085;-48
2023/08/09 05:57:19;;;;;;;29.77;14.50;;;13.20;99.90;;;;;;4806167;29;20075;-48
2023/08/09 05:59:45;;;;;;;47.40;13.63;;;13.50;99.90;;;;;;4806021;29;20115;-50
2023/08/09 06:02:10;;;;;;;35.45;20.77;;;13.40;99.90;;;;;;4805901;29;20051;-51
2023/08/09 06:04:36;;;;;;;33.38;14.95;;;13.40;99.90;;;;;;4806113;29;20046;-52
2023/08/09 06:07:03;;;;;;;48.70;22.15;;;13.40;99.90;;;;;;4805439;29;20542;-51
2023/08/09 06:09:29;;;;;;;32.67;19.10;;;13.50;99.90;;;;;;4803337;29;20054;-50
2023/08/09 06:11:55;;;;;;;30.58;20.05;;;13.60;99.90;;;;;;4805567;29;20487;-50
2023/08/09 06:14:20;;;;;;;36.90;13.57;;;13.90;99.90;;;;;;4805736;29;20062;-53
2023/08/09 06:16:48;;;;;;;29.30;14.20;;;13.70;99.90;;;;;;4789133;29;20077;-48
2023/08/09 06:19:13;;;;;;;31.52;15.25;;;13.70;99.90;;;;;;4804288;29;20116;-49
2023/08/09 06:21:40;;;;;;;36.60;20.23;;;13.70;99.90;;;;;;4794456;29;20196;-51
2023/08/09 06:24:06;;;;;;;31.98;20.35;;;13.90;99.90;;;;;;4787630;29;20050;-50
2023/08/09 06:26:33;;;;;;;31.13;14.32;;;13.80;99.90;;;;;;4787412;29;20042;-51
2023/08/09 06:29:00;;;;;;;24.50;13.65;;;13.90;99.90;;;;;;4789972;29;20424;-51
2023/08/09 06:31:25;;;;;;;25.88;14.43;;;13.90;99.90;;;;;;4793007;29;21033;-53
2023/08/09 06:33:54;;;;;;;28.58;20.15;;;14.20;99.90;;;;;;4786752;29;20990;-50
2023/08/09 06:36:20;;;;;;;27.33;19.55;;;14.00;99.90;;;;;;4784825;29;20562;-49
2023/08/09 06:38:46;;;;;;;25.13;19.10;;;14.00;99.90;;;;;;4787040;29;20104;-51
2023/08/09 06:41:12;;;;;;;26.55;19.92;;;14.10;99.90;;;;;;4788146;29;20183;-51
2023/08/09 06:43:38;;;;;;;27.13;13.57;;;14.50;99.90;;;;;;4787260;29;20094;-52
2023/08/09 06:46:03;;;;;;;31.85;15.30;;;14.30;99.90;;;;;;4788032;29;20047;-53
2023/08/09 06:48:29;;;;;;;25.90;15.55;;;14.30;99.90;;;;;;4785724;29;20084;-51
2023/08/09 06:50:57;;;;;;;27.00;14.70;;;14.30;99.90;;;;;;4786809;29;20511;-51
2023/08/09 06:53:23;;;;;;;29.23;15.45;;;14.50;99.90;;;;;;4787887;29;20095;-50
2023/08/09 06:55:49;;;;;;;22.52;18.52;;;14.50;99.90;;;;;;4786092;29;20043;-47
2023/08/09 06:58:15;;;;;;;23.90;18.23;;;14.70;99.90;;;;;;4787779;29;20051;-53
2023/08/09 07:00:41;;;;;;;29.58;20.85;;;14.60;99.90;;;;;;4790597;29;20511;-52
2023/08/09 07:03:07;;;;;;;25.38;19.00;;;14.80;99.90;;;;;;4785194;29;20043;-50
2023/08/09 07:05:33;;;;;;;24.30;18.65;;;14.60;99.90;;;;;;4789760;29;20078;-51
2023/08/09 07:07:59;;;;;;;25.67;18.23;;;14.90;99.90;;;;;;4785981;29;20185;-48
2023/08/09 07:10:25;;;;;;;23.98;17.90;;;15.00;99.90;;;;;;4792667;29;20125;-51
2023/08/09 07:12:51;;;;;;;22.88;17.88;;;15.00;99.90;;;;;;4786645;29;20039;-51
2023/08/09 07:15:17;;;;;;;25.70;14.20;;;14.90;99.90;;;;;;4787498;29;20061;-50
2023/08/09 07:17:43;;;;;;;23.02;18.13;;;14.70;99.90;;;;;;4788813;29;20043;-52
2023/08/09 07:20:11;;;;;;;23.30;18.52;;;14.90;99.90;;;;;;4787205;29;20087;-52
2023/08/09 07:22:37;;;;;;;20.58;17.13;;;14.90;99.90;;;;;;4786777;29;20057;-50
2023/08/09 07:25:03;;;;;;;21.67;17.70;;;14.80;99.90;;;;;;4786644;29;20086;-50
2023/08/09 07:27:30;;;;;;;21.92;18.50;;;15.10;99.90;;;;;;4786780;29;20063;-50
2023/08/09 07:29:55;;;;;;;22.33;13.45;;;15.00;99.90;;;;;;4785674;29;20042;-47
2023/08/09 07:32:21;;;;;;;21.73;13.40;;;15.20;99.90;;;;;;4789287;29;20045;-52
2023/08/09 07:34:47;;;;;;;22.27;17.17;;;15.20;99.90;;;;;;4785820;29;20480;-49
2023/08/09 07:37:13;;;;;;;24.10;15.40;;;15.30;99.90;;;;;;4785624;29;20393;-49
2023/08/09 07:39:38;;;;;;;28.60;15.10;;;15.10;99.90;;;;;;4782426;29;20051;-50
2023/08/09 07:42:04;;;;;;;24.30;17.17;;;15.10;99.90;;;;;;4787522;29;20047;-51
2023/08/09 07:44:30;;;;;;;20.60;13.98;;;15.50;99.90;;;;;;4784230;29;20055;-50
2023/08/09 07:46:56;;;;;;;21.10;16.38;;;15.30;99.90;;;;;;4786489;29;20183;-49
2023/08/09 07:49:21;;;;;;;24.65;14.75;;;15.70;99.90;;;;;;4786522;29;20039;-53
2023/08/09 07:51:47;;;;;;;22.00;17.02;;;15.70;99.90;;;;;;4786562;29;20144;-50
2023/08/09 07:54:13;;;;;;;19.77;15.60;;;15.50;99.90;;;;;;4785970;29;20579;-50
2023/08/09 07:56:38;;;;;;;20.65;16.35;;;15.90;99.90;;;;;;4786385;29;20137;-49
2023/08/09 07:59:04;;;;;;;18.52;14.35;;;15.90;99.90;;;;;;4792629;29;20050;-52
2023/08/09 08:01:32;;;;;;;17.10;14.30;;;15.60;99.90;;;;;;4786789;29;20039;-52
2023/08/09 08:03:58;;;;;;;15.85;14.18;;;15.70;99.90;;;;;;4785400;29;20512;-50
2023/08/09 08:06:24;;;;;;;18.88;15.00;;;15.70;99.90;;;;;;4785817;29;20042;-53
2023/08/09 08:08:50;;;;;;;16.73;13.57;;;15.70;99.90;;;;;;4786861;29;20124;-51
2023/08/09 08:11:15;;;;;;;16.80;13.98;;;15.90;99.90;;;;;;4784210;29;20050;-51
2023/08/09 08:13:41;;;;;;;15.48;13.63;;;15.90;99.90;;;;;;4785300;29;20050;-52
2023/08/09 08:16:07;;;;;;;15.13;11.05;;;16.00;99.90;;;;;;4785439;29;20046;-51
2023/08/09 08:18:32;;;;;;;12.13;8.77;;;16.40;99.90;;;;;;4790087;29;20134;-47
2023/08/09 08:21:00;;;;;;;11.75;8.70;;;16.30;99.90;;;;;;4787603;29;20823;-50
2023/08/09 08:23:25;;;;;;;10.02;8.30;;;16.30;99.90;;;;;;4787301;29;20541;-51
2023/08/09 08:25:51;;;;;;;9.80;7.38;;;16.60;99.90;;;;;;4792547;29;20122;-49
2023/08/09 08:28:17;;;;;;;9.77;6.25;;;16.70;99.90;;;;;;4790300;29;20529;-53
2023/08/09 08:30:43;;;;;;;13.15;8.30;;;16.60;99.90;;;;;;4789873;29;20122;-51
2023/08/09 08:33:08;;;;;;;11.65;7.97;;;16.70;99.90;;;;;;4788564;29;20047;-50
2023/08/09 08:35:43;;;;;;;10.85;7.43;;;16.60;99.90;;;;;;4785878;29;20552;-52
2023/08/09 08:38:09;;;;;;;10.23;7.15;;;16.90;99.90;;;;;;4784988;29;20051;-50
2023/08/09 08:40:35;;;;;;;9.13;6.18;;;17.10;99.90;;;;;;4786828;29;20047;-51
2023/08/09 08:43:01;;;;;;;8.90;6.25;;;17.10;99.90;;;;;;4788323;29;20035;-53
2023/08/09 08:45:27;;;;;;;9.23;5.82;;;17.20;99.90;;;;;;4787292;29;20422;-53
2023/08/09 08:47:53;;;;;;;8.27;5.97;;;17.40;99.90;;;;;;4789667;29;20157;-52
2023/08/09 08:50:19;;;;;;;7.78;5.95;;;17.50;99.90;;;;;;4789512;29;20044;-51
2023/08/09 08:52:47;;;;;;;12.25;6.78;;;17.60;99.90;;;;;;4788107;29;20130;-50
2023/08/09 08:55:14;;;;;;;8.30;5.45;;;17.60;99.90;;;;;;4789292;29;20054;-50
2023/08/09 08:57:41;;;;;;;7.05;4.90;;;17.70;99.90;;;;;;4788010;29;20142;-51
2023/08/09 09:00:08;;;;;;;7.53;5.18;;;17.70;99.90;;;;;;4790045;29;20046;-50
2023/08/09 09:02:35;;;;;;;4.40;1.73;;;17.70;99.90;;;;;;4801490;29;20055;-52
2023/08/09 09:05:02;;;;;;;3.33;1.35;;;17.80;99.90;;;;;;4803537;29;20050;-51
2023/08/09 09:07:29;;;;;;;2.97;1.00;;;17.80;99.90;;;;;;4804924;29;20077;-51
2023/08/09 09:10:05;;;;;;;5.10;1.45;;;18.00;99.90;;;;;;4805377;29;20031;-50
2023/08/09 09:12:35;;;;;;;6.95;1.50;;;18.10;99.90;;;;;;4806204;29;20051;-51
2023/08/09 09:15:05;;;;;;;5.20;1.48;;;18.20;99.90;;;;;;4789328;29;20543;-51
2023/08/09 09:17:37;;;;;;;2.75;1.20;;;18.30;99.90;;;;;;4805134;29;20467;-47
2023/08/09 09:20:03;;;;;;;3.53;1.10;;;18.50;99.90;;;;;;4806627;29;20483;-51
2023/08/09 09:22:30;;;;;;;3.88;1.05;;;18.70;99.90;;;;;;4819501;29;20133;-49
2023/08/09 09:25:04;;;;;;;4.43;1.00;;;18.80;99.90;;;;;;4806460;29;20038;-53
2023/08/09 09:27:32;;;;;;;4.88;1.30;;;18.90;99.90;;;;;;4806560;29;20039;-52
2023/08/09 09:30:12;;;;;;;2.83;1.00;;;18.90;99.90;;;;;;4806527;29;20280;-51
2023/08/09 09:32:40;;;;;;;3.40;0.90;;;18.90;99.90;;;;;;4806664;29;20042;-49
2023/08/09 09:35:08;;;;;;;3.08;0.88;;;18.80;99.90;;;;;;4806547;29;20390;-51
2023/08/09 09:37:35;;;;;;;4.18;0.98;;;18.80;99.90;;;;;;4806291;29;20059;-51
2023/08/09 09:40:01;;;;;;;2.63;0.82;;;18.90;99.90;;;;;;4805834;29;20057;-50
2023/08/09 09:42:34;;;;;;;3.00;0.80;;;19.00;99.90;;;;;;4806282;29;20130;-52
2023/08/09 09:45:10;;;;;;;2.53;1.00;;;19.10;99.90;;;;;;4804774;29;20058;-52
2023/08/09 09:47:39;;;;;;;3.67;0.90;;;19.20;99.90;;;;;;4806414;29;20082;-51
2023/08/09 09:50:09;;;;;;;2.40;0.77;;;19.30;99.90;;;;;;4805998;29;20136;-51
2023/08/09 09:52:36;;;;;;;3.78;1.00;;;19.30;99.90;;;;;;4806092;29;20043;-53
2023/08/09 09:55:03;;;;;;;2.55;0.98;;;19.40;99.90;;;;;;4803854;29;20491;-53
2023/08/09 09:57:29;;;;;;;3.00;0.98;;;19.40;99.90;;;;;;4806019;29;20039;-50
2023/08/09 09:59:59;;;;;;;2.05;0.70;;;19.40;99.90;;;;;;4806048;29;20069;-53
2023/08/09 10:02:47;;;;;;;2.78;0.82;;;19.40;99.90;;;;;;4806009;29;20089;-52
2023/08/09 10:05:21;;;;;;;1.88;0.63;;;19.40;99.90;;;;;;4805647;29;20090;-49
2023/08/09 10:07:48;;;;;;;5.28;1.05;;;19.40;99.90;;;;;;4803838;29;20399;-53
2023/08/09 10:10:16;;;;;;;5.10;0.80;;;19.40;99.90;;;;;;4802557;29;20497;-51
2023/08/09 10:12:47;;;;;;;2.15;0.80;;;19.50;99.90;;;;;;4802886;29;20050;-51
2023/08/09 10:15:16;;;;;;;2.03;0.90;;;19.50;99.90;;;;;;4786675;29;20103;-51
2023/08/09 10:17:43;;;;;;;3.42;0.90;;;19.60;99.90;;;;;;4803438;29;20051;-50
2023/08/09 10:20:11;;;;;;;2.85;1.20;;;19.70;99.90;;;;;;4799216;29;20054;-52
2023/08/09 10:22:38;;;;;;;4.15;1.67;;;19.80;99.90;;;;;;4797878;29;20078;-50
2023/08/09 10:25:04;;;;;;;3.80;1.35;;;19.90;99.90;;;;;;4800499;29;20054;-53
2023/08/09 10:27:49;;;;;;;4.55;0.98;;;19.80;99.90;;;;;;4801859;29;20043;-50
2023/08/09 10:30:25;;;;;;;3.42;0.98;;;19.80;99.90;;;;;;4815548;29;20118;-54
2023/08/09 10:32:55;;;;;;;3.50;1.30;;;19.80;99.90;;;;;;4801247;29;20050;-50
2023/08/09 10:35:44;;;;;;;3.70;1.33;;;19.90;99.90;;;;;;4802279;29;20074;-50
2023/08/09 10:38:37;;;;;;;2.95;1.08;;;20.00;99.90;;;;;;4801562;29;20054;-51
2023/08/09 10:41:10;;;;;;;4.22;1.13;;;20.10;99.90;;;;;;4799303;29;20078;-53
2023/08/09 10:43:36;;;;;;;5.07;1.10;;;20.20;99.90;;;;;;4801470;29;20039;-52
2023/08/09 10:46:18;;;;;;;3.80;1.20;;;20.30;99.90;;;;;;4800472;29;20108;-50
2023/08/09 10:48:52;;;;;;;2.90;1.13;;;20.40;99.90;;;;;;4802207;29;20051;-52
2023/08/09 10:51:20;;;;;;;4.32;1.10;;;20.50;99.90;;;;;;4801298;29;20070;-48
2023/08/09 10:54:03;;;;;;;3.50;1.13;;;20.50;99.90;;;;;;4801659;29;20125;-51
2023/08/09 10:56:46;;;;;;;4.68;1.00;;;20.50;99.90;;;;;;4800078;29;20063;-52
2023/08/09 10:59:24;;;;;;;2.80;1.08;;;20.60;99.90;;;;;;4800084;29;20380;-52
2023/08/09 11:01:51;;;;;;;5.45;1.20;;;20.60;99.90;;;;;;4800489;29;20107;-49
2023/08/09 11:04:18;;;;;;;2.60;1.00;;;20.60;99.90;;;;;;4802653;29;20046;-52
2023/08/09 11:06:46;;;;;;;3.67;0.90;;;20.60;99.90;;;;;;4802040;29;20043;-52
2023/08/09 11:09:18;;;;;;;4.15;1.25;;;20.70;99.90;;;;;;4803066;29;20518;-51
2023/08/09 11:11:46;;;;;;;2.83;1.00;;;20.80;99.90;;;;;;4802441;29;20487;-52
2023/08/09 11:14:16;;;;;;;3.65;1.13;;;20.80;99.90;;;;;;4802347;29;20058;-52
2023/08/09 11:16:44;;;;;;;5.20;1.10;;;20.80;99.90;;;;;;4802771;29;20047;-52
2023/08/09 11:19:12;;;;;;;2.33;0.90;;;21.00;99.90;;;;;;4800050;29;20059;-51
2023/08/09 11:21:43;;;;;;;4.43;1.20;;;21.00;99.90;;;;;;4800313;29;20050;-53
2023/08/09 11:24:10;;;;;;;2.55;1.00;;;21.00;99.90;;;;;;4801364;29;20234;-50
2023/08/09 11:26:38;;;;;;;5.68;1.70;;;21.10;99.90;;;;;;4800869;29;20130;-50
2023/08/09 11:29:05;;;;;;;4.35;1.10;;;21.20;99.90;;;;;;4800729;29;20047;-52
2023/08/09 11:31:39;;;;;;;3.55;1.27;;;21.30;99.90;;;;;;4802636;29;20042;-52
2023/08/09 11:34:05;;;;;;;3.90;1.08;;;21.40;99.90;;;;;;4815173;29;20039;-52
2023/08/09 11:36:32;;;;;;;3.83;1.20;;;21.50;99.90;;;;;;4801097;29;20058;-53
2023/08/09 11:38:58;;;;;;;3.88;1.20;;;21.50;99.90;;;;;;4790726;29;20050;-52
2023/08/09 11:41:25;;;;;;;5.85;1.20;;;21.60;99.90;;;;;;4788607;29;20057;-49
2023/08/09 11:43:52;;;;;;;4.50;1.05;;;21.60;99.90;;;;;;4789729;29;22778;-52
2023/08/09 11:46:22;;;;;;;2.15;0.95;;;21.70;99.90;;;;;;4787605;29;20188;-48
2023/08/09 11:48:50;;;;;;;6.05;1.52;;;21.80;99.90;;;;;;4788132;29;20499;-48
2023/08/09 11:51:19;;;;;;;3.40;0.93;;;21.80;99.90;;;;;;4789432;29;20043;-49
2023/08/09 11:53:49;;;;;;;4.32;1.20;;;21.90;99.90;;;;;;4800044;29;20042;-50
2023/08/09 11:56:20;;;;;;;4.32;0.90;;;22.00;99.90;;;;;;4815744;29;20046;-51
2023/08/09 11:58:52;;;;;;;3.60;1.00;;;22.00;99.90;;;;;;4798134;29;20042;-49
2023/08/09 12:01:20;;;;;;;2.72;1.13;;;21.90;99.90;;;;;;4798729;29;20073;-47
2023/08/09 12:03:55;;;;;;;3.90;0.98;;;21.90;99.90;;;;;;4799128;29;20038;-50
2023/08/09 12:06:37;;;;;;;5.00;0.98;;;21.70;99.90;;;;;;4801897;29;20472;-51
2023/08/09 12:09:25;;;;;;;2.53;0.90;;;21.70;99.90;;;;;;4803889;29;20058;-51
2023/08/09 12:11:51;;;;;;;4.80;1.10;;;21.60;99.90;;;;;;4804142;29;20085;-52
2023/08/09 12:14:17;;;;;;;3.08;1.00;;;21.60;99.90;;;;;;4804251;29;20550;-49
2023/08/09 12:16:43;;;;;;;3.47;1.05;;;21.80;99.90;;;;;;4803742;29;20047;-50
2023/08/09 12:19:08;;;;;;;3.15;0.82;;;21.90;99.90;;;;;;4803230;29;20075;-52
2023/08/09 12:21:34;;;;;;;3.33;0.90;;;22.00;99.90;;;;;;4803865;29;20111;-47
2023/08/09 12:24:00;;;;;;;3.67;0.80;;;22.10;99.90;;;;;;4802625;29;20400;-52
2023/08/09 12:26:28;;;;;;;3.38;1.10;;;22.20;99.90;;;;;;4802986;29;20091;-50
2023/08/09 12:28:57;;;;;;;3.03;1.10;;;22.20;99.90;;;;;;4803892;29;20038;-49
2023/08/09 12:31:22;;;;;;;3.22;0.90;;;22.20;99.90;;;;;;4787948;29;20411;-51
2023/08/09 12:33:48;;;;;;;4.43;1.00;;;22.20;99.90;;;;;;4804084;29;20380;-52
2023/08/09 12:36:14;;;;;;;2.55;0.80;;;22.10;99.90;;;;;;4804260;29;20508;-48